createdAt,value
2023-04-01T00:01:47.333Z,8.00
2023-04-01T00:04:17.755Z,8.02
2023-04-01T00:06:49.951Z,8.04
2023-04-01T00:09:20.348Z,8.06
2023-04-01T00:11:50.661Z,8.07
2023-04-01T00:14:21.103Z,8.09
2023-04-01T00:16:51.742Z,8.10
2023-04-01T00:19:22.204Z,8.12
2023-04-01T00:21:53.296Z,8.14
2023-04-01T00:24:23.641Z,8.15
2023-04-01T00:26:54.046Z,8.17
2023-04-01T00:29:25.202Z,8.18
2023-04-01T00:31:56.093Z,8.18
2023-04-01T00:34:26.576Z,8.17
2023-04-01T00:36:56.925Z,8.16
2023-04-01T00:39:27.431Z,8.16
2023-04-01T00:41:58.437Z,8.15
2023-04-01T00:44:30.760Z,8.14
2023-04-01T00:47:01.229Z,8.15
2023-04-01T00:49:35.339Z,8.17
2023-04-01T00:52:07.619Z,8.20
2023-04-01T00:54:39.763Z,8.21
2023-04-01T00:57:19.463Z,8.21
2023-04-01T00:59:54.726Z,8.22
2023-04-01T01:02:26.056Z,8.22
2023-04-01T01:04:56.575Z,8.23
2023-04-01T01:07:35.923Z,8.23
2023-04-01T01:10:12.927Z,8.23
2023-04-01T01:12:46.781Z,8.23
2023-04-01T01:15:23.531Z,8.22
2023-04-01T01:18:04.872Z,8.22
2023-04-01T01:20:56.750Z,8.23
2023-04-01T01:24:06.162Z,8.23
2023-04-01T01:26:48.679Z,8.22
2023-04-01T01:29:40.034Z,8.23
2023-04-01T01:32:18.125Z,8.23
2023-04-01T01:34:56.670Z,8.23
2023-04-01T01:37:29.467Z,8.24
2023-04-01T01:40:06.089Z,8.24
2023-04-01T01:42:41.383Z,8.24
2023-04-01T01:45:14.670Z,8.24
2023-04-01T01:47:46.432Z,8.24
2023-04-01T01:50:19.016Z,8.24
2023-04-01T01:52:49.626Z,8.24
2023-04-01T01:55:32.921Z,8.24
2023-04-01T01:58:12.315Z,8.24
2023-04-01T02:00:46.269Z,8.24
2023-04-01T02:03:19.200Z,8.24
2023-04-01T02:05:50.553Z,8.24
2023-04-01T02:08:27.575Z,8.25
2023-04-01T02:10:57.970Z,8.26
2023-04-01T02:13:37.921Z,8.27
2023-04-01T02:16:13.417Z,8.28
2023-04-01T02:18:45.953Z,8.30
2023-04-01T02:21:17.408Z,8.32
2023-04-01T02:23:48.869Z,8.35
2023-04-01T02:26:20.092Z,8.36
2023-04-01T02:28:53.049Z,8.37
2023-04-01T02:31:25.797Z,8.39
2023-04-01T02:33:58.263Z,8.41
2023-04-01T02:36:28.770Z,8.42
2023-04-01T02:39:04.946Z,8.43
2023-04-01T02:41:40.594Z,8.44
2023-04-01T02:44:13.149Z,8.46
2023-04-01T02:46:43.670Z,8.49
2023-04-01T02:49:14.398Z,8.51
2023-04-01T02:51:44.693Z,8.53
2023-04-01T02:54:16.845Z,8.54
2023-04-01T02:56:47.810Z,8.55
2023-04-01T02:59:18.614Z,8.55
2023-04-01T03:01:48.975Z,8.55
2023-04-01T03:04:19.396Z,8.55
2023-04-01T03:06:49.963Z,8.56
2023-04-01T03:09:20.288Z,8.56
2023-04-01T03:11:50.766Z,8.59
2023-04-01T03:14:21.184Z,8.59
2023-04-01T03:16:51.647Z,8.62
2023-04-01T03:19:22.094Z,8.62
2023-04-01T03:21:52.597Z,8.62
2023-04-01T03:24:23.229Z,8.61
2023-04-01T03:26:53.621Z,8.60
2023-04-01T03:29:24.034Z,8.59
2023-04-01T03:31:54.430Z,8.58
2023-04-01T03:34:24.728Z,8.57
2023-04-01T03:36:55.643Z,8.57
2023-04-01T03:39:26.388Z,8.57
2023-04-01T03:41:56.694Z,8.57
2023-04-01T03:44:27.152Z,8.56
2023-04-01T03:46:57.974Z,8.55
2023-04-01T03:49:28.436Z,8.53
2023-04-01T03:51:58.820Z,8.51
2023-04-01T03:54:29.169Z,8.51
2023-04-01T03:56:59.620Z,8.51
2023-04-01T03:59:30.361Z,8.49
2023-04-01T04:02:00.984Z,8.48
2023-04-01T04:04:33.191Z,8.46
2023-04-01T04:07:03.709Z,8.44
2023-04-01T04:09:40.416Z,8.44
2023-04-01T04:12:10.979Z,8.41
2023-04-01T04:14:41.514Z,8.39
2023-04-01T04:17:17.200Z,8.37
2023-04-01T04:19:48.380Z,8.36
2023-04-01T04:22:18.954Z,8.36
2023-04-01T04:24:49.312Z,8.34
2023-04-01T04:27:20.658Z,8.32
2023-04-01T04:30:03.299Z,8.29
2023-04-01T04:32:34.700Z,8.27
2023-04-01T04:35:05.336Z,8.23
2023-04-01T04:37:35.735Z,8.22
2023-04-01T04:40:07.538Z,8.21
2023-04-01T04:42:37.956Z,8.20
2023-04-01T04:45:13.976Z,8.19
2023-04-01T04:47:48.930Z,8.19
2023-04-01T04:50:19.288Z,8.17
2023-04-01T04:52:49.836Z,8.17
2023-04-01T04:55:21.216Z,8.17
2023-04-01T04:57:54.992Z,8.18
2023-04-01T05:00:25.777Z,8.18
2023-04-01T05:03:00.704Z,8.19
2023-04-01T05:05:31.344Z,8.20
2023-04-01T05:08:02.430Z,8.20
2023-04-01T05:10:35.458Z,8.19
2023-04-01T05:13:06.345Z,8.19
2023-04-01T05:15:37.048Z,8.18
2023-04-01T05:18:07.683Z,8.15
2023-04-01T05:20:38.631Z,8.14
2023-04-01T05:23:09.039Z,8.15
2023-04-01T05:25:42.193Z,8.17
2023-04-01T05:28:13.164Z,8.20
2023-04-01T05:30:45.388Z,8.21
2023-04-01T05:33:30.705Z,8.23
2023-04-01T05:36:09.667Z,8.25
2023-04-01T05:38:40.087Z,8.27
2023-04-01T05:41:12.731Z,8.29
2023-04-01T05:43:46.242Z,8.29
2023-04-01T05:46:52.017Z,8.30
2023-04-01T05:49:28.374Z,8.32
2023-04-01T05:51:59.681Z,8.34
2023-04-01T05:54:31.003Z,8.35
2023-04-01T05:57:01.405Z,8.36
2023-04-01T05:59:33.270Z,8.39
2023-04-01T06:02:03.643Z,8.40
2023-04-01T06:04:44.795Z,8.42
2023-04-01T06:07:16.933Z,8.42
2023-04-01T06:09:48.237Z,8.44
2023-04-01T06:12:49.030Z,8.45
2023-04-01T06:15:27.988Z,8.49
2023-04-01T06:18:18.094Z,8.52
2023-04-01T06:20:58.003Z,8.56
2023-04-01T06:23:43.425Z,8.59
2023-04-01T06:26:25.231Z,8.65
2023-04-01T06:29:07.484Z,8.69
2023-04-01T06:31:55.466Z,8.72
2023-04-01T06:34:44.853Z,8.78
2023-04-01T06:37:30.770Z,8.84
2023-04-01T06:40:20.250Z,8.89
2023-04-01T06:43:09.151Z,8.94
2023-04-01T06:46:05.837Z,8.94
2023-04-01T06:49:10.202Z,8.90
2023-04-01T06:52:18.776Z,8.91
2023-04-01T06:55:26.417Z,8.95
2023-04-01T06:58:23.449Z,8.99
2023-04-01T07:00:56.632Z,9.02
2023-04-01T07:03:35.774Z,9.05
2023-04-01T07:06:12.657Z,9.07
2023-04-01T07:08:51.057Z,9.09
2023-04-01T07:11:28.297Z,9.14
2023-04-01T07:14:36.663Z,9.19
2023-04-01T07:17:11.289Z,9.22
2023-04-01T07:19:47.252Z,9.25
2023-04-01T07:22:21.720Z,9.26
2023-04-01T07:25:22.029Z,9.29
2023-04-01T07:28:06.239Z,9.32
2023-04-01T07:30:49.245Z,9.35
2023-04-01T07:33:27.318Z,9.40
2023-04-01T07:36:05.448Z,9.46
2023-04-01T07:38:49.713Z,9.50
2023-04-01T07:41:26.775Z,9.52
2023-04-01T07:44:10.615Z,9.56
2023-04-01T07:46:56.185Z,9.57
2023-04-01T07:49:36.462Z,9.61
2023-04-01T07:52:13.928Z,9.67
2023-04-01T07:54:52.556Z,9.70
2023-04-01T07:57:23.722Z,9.72
2023-04-01T08:00:05.554Z,9.76
2023-04-01T08:03:00.559Z,9.80
2023-04-01T08:05:38.151Z,9.89
2023-04-01T08:08:19.393Z,9.95
2023-04-01T08:11:43.801Z,10.04
2023-04-01T08:14:43.084Z,10.08
2023-04-01T08:17:58.838Z,10.05
2023-04-01T08:20:36.125Z,10.06
2023-04-01T08:23:14.647Z,10.13
2023-04-01T08:25:52.380Z,10.16
2023-04-01T08:28:31.109Z,10.21
2023-04-01T08:31:06.580Z,10.25
2023-04-01T08:33:38.859Z,10.27
2023-04-01T08:36:17.364Z,10.27
2023-04-01T08:38:57.117Z,10.29
2023-04-01T08:42:03.953Z,10.34
2023-04-01T08:45:20.687Z,10.42
2023-04-01T08:48:14.382Z,10.52
2023-04-01T08:51:08.123Z,10.62
2023-04-01T08:53:57.392Z,10.71
2023-04-01T08:56:33.665Z,10.77
2023-04-01T08:59:28.374Z,10.79
2023-04-01T09:02:35.009Z,10.84
2023-04-01T09:05:34.784Z,11.02
2023-04-01T09:08:19.303Z,11.06
2023-04-01T09:11:01.843Z,11.12
2023-04-01T09:14:36.405Z,11.10
2023-04-01T09:17:48.129Z,11.12
2023-04-01T09:20:41.538Z,11.07
2023-04-01T09:23:31.178Z,11.04
2023-04-01T09:26:16.123Z,11.10
2023-04-01T09:28:58.103Z,11.16
2023-04-01T09:31:49.328Z,11.19
2023-04-01T09:35:02.899Z,11.29
2023-04-01T09:37:53.200Z,11.39
2023-04-01T09:40:39.773Z,11.51
2023-04-01T09:43:36.573Z,11.65
2023-04-01T09:46:33.363Z,11.53
2023-04-01T09:49:38.444Z,11.57
2023-04-01T09:52:27.862Z,11.48
2023-04-01T09:55:23.630Z,11.39
2023-04-01T09:58:24.072Z,11.55
2023-04-01T10:01:42.297Z,11.79
2023-04-01T10:04:45.439Z,11.94
2023-04-01T10:07:55.551Z,12.13
2023-04-01T10:10:58.490Z,12.33
2023-04-01T10:13:49.119Z,12.49
2023-04-01T10:16:56.726Z,12.60
2023-04-01T10:20:04.747Z,12.64
2023-04-01T10:23:16.305Z,12.72
2023-04-01T10:26:22.351Z,12.82
2023-04-01T10:29:42.742Z,12.95
2023-04-01T10:32:34.631Z,13.02
2023-04-01T10:35:30.448Z,13.10
2023-04-01T10:38:34.041Z,13.17
2023-04-01T10:41:31.019Z,13.06
2023-04-01T10:44:57.891Z,12.92
2023-04-01T10:47:51.967Z,12.76
2023-04-01T10:50:53.181Z,12.60
2023-04-01T10:53:41.939Z,12.46
2023-04-01T10:56:49.379Z,12.28
2023-04-01T10:59:59.573Z,12.01
2023-04-01T11:06:44.855Z,11.53
2023-04-01T11:09:47.303Z,11.46
2023-04-01T11:12:51.207Z,11.61
2023-04-01T11:15:43.134Z,11.68
2023-04-01T11:19:08.850Z,11.61
2023-04-01T11:22:01.711Z,11.48
2023-04-01T11:25:23.221Z,11.48
2023-04-01T11:28:32.481Z,11.56
2023-04-01T11:31:25.794Z,11.59
2023-04-01T11:34:04.944Z,11.69
2023-04-01T11:36:47.124Z,11.72
2023-04-01T11:39:29.749Z,11.77
2023-04-01T11:42:32.635Z,11.85
2023-04-01T11:45:39.142Z,11.94
2023-04-01T11:48:24.736Z,11.90
2023-04-01T11:51:13.955Z,11.82
2023-04-01T11:53:57.478Z,11.70
2023-04-01T11:56:51.105Z,11.54
2023-04-01T12:00:00.934Z,11.30
2023-04-01T12:02:46.485Z,11.02
2023-04-01T12:05:33.488Z,10.81
2023-04-01T12:08:18.284Z,10.64
2023-04-01T12:10:56.781Z,10.61
2023-04-01T12:13:42.093Z,10.75
2023-04-01T12:16:38.658Z,11.08
2023-04-01T12:19:21.240Z,11.60
2023-04-01T12:22:06.290Z,12.04
2023-04-01T12:24:57.890Z,12.10
2023-04-01T12:27:47.704Z,11.89
2023-04-01T12:30:36.529Z,11.83
2023-04-01T12:33:44.571Z,12.70
2023-04-01T12:36:27.843Z,14.38
2023-04-01T12:39:21.341Z,14.30
2023-04-01T12:42:01.520Z,13.75
2023-04-01T12:44:55.372Z,13.31
2023-04-01T12:47:56.737Z,12.97
2023-04-01T12:50:45.479Z,12.76
2023-04-01T12:53:36.214Z,12.50
2023-04-01T12:56:15.003Z,12.23
2023-04-01T12:59:02.082Z,11.94
2023-04-01T13:01:57.605Z,11.70
2023-04-01T13:04:47.596Z,11.56
2023-04-01T13:07:48.608Z,11.44
2023-04-01T13:10:30.595Z,11.36
2023-04-01T13:13:42.072Z,11.29
2023-04-01T13:16:16.437Z,11.19
2023-04-01T13:18:59.688Z,11.14
2023-04-01T13:21:42.737Z,11.09
2023-04-01T13:24:26.966Z,11.05
2023-04-01T13:27:07.400Z,11.01
2023-04-01T13:29:42.725Z,11.01
2023-04-01T13:32:42.427Z,10.92
2023-04-01T13:35:28.416Z,10.75
2023-04-01T13:38:19.898Z,10.66
2023-04-01T13:41:04.094Z,10.63
2023-04-01T13:43:39.032Z,10.52
2023-04-01T13:46:32.485Z,10.45
2023-04-01T13:49:30.558Z,10.37
2023-04-01T13:52:10.240Z,10.32
2023-04-01T13:55:09.396Z,10.20
2023-04-01T13:57:56.003Z,10.14
2023-04-01T14:00:41.962Z,10.06
2023-04-01T14:03:33.352Z,9.99
2023-04-01T14:06:35.612Z,9.93
2023-04-01T14:09:47.000Z,9.86
2023-04-01T14:12:31.718Z,9.79
2023-04-01T14:15:23.432Z,9.77
2023-04-01T14:18:11.839Z,9.76
2023-04-01T14:20:44.395Z,9.75
2023-04-01T14:23:37.790Z,9.74
2023-04-01T14:26:23.728Z,9.69
2023-04-01T14:29:04.652Z,9.64
2023-04-01T14:31:50.886Z,9.65
2023-04-01T14:34:34.030Z,9.68
2023-04-01T14:37:17.785Z,9.69
2023-04-01T14:40:22.081Z,9.69
2023-04-01T14:43:38.710Z,9.69
2023-04-01T14:46:26.687Z,9.68
2023-04-01T14:49:02.048Z,9.71
2023-04-01T14:51:38.592Z,9.77
2023-04-01T14:54:17.933Z,9.84
2023-04-01T14:56:52.727Z,9.86
2023-04-01T14:59:31.460Z,9.88
2023-04-01T15:02:11.805Z,9.91
2023-04-01T15:04:51.373Z,9.95
2023-04-01T15:07:57.214Z,9.96
2023-04-01T15:10:56.266Z,9.96
2023-04-01T15:13:42.800Z,9.96
2023-04-01T15:16:21.182Z,10.00
2023-04-01T15:19:02.948Z,10.06
2023-04-01T15:21:51.336Z,10.14
2023-04-01T15:24:26.101Z,10.24
2023-04-01T15:27:14.145Z,10.35
2023-04-01T15:30:02.571Z,10.47
2023-04-01T15:32:47.874Z,10.57
2023-04-01T15:35:30.166Z,10.64
2023-04-01T15:38:07.788Z,10.71
2023-04-01T15:40:44.858Z,10.73
2023-04-01T15:43:24.691Z,10.76
2023-04-01T15:46:12.427Z,10.76
2023-04-01T15:48:54.947Z,10.77
2023-04-01T15:51:40.316Z,10.76
2023-04-01T15:54:35.080Z,10.77
2023-04-01T15:57:31.006Z,10.75
2023-04-01T16:00:21.446Z,10.70
2023-04-01T16:03:03.610Z,10.67
2023-04-01T16:05:44.895Z,10.68
2023-04-01T16:09:00.198Z,10.64
2023-04-01T16:11:46.052Z,10.57
2023-04-01T16:14:31.484Z,10.51
2023-04-01T16:17:13.645Z,10.45
2023-04-01T16:19:53.634Z,10.40
2023-04-01T16:22:29.160Z,10.35
2023-04-01T16:25:16.419Z,10.26
2023-04-01T16:27:54.773Z,10.19
2023-04-01T16:30:39.467Z,10.14
2023-04-01T16:33:20.056Z,10.09
2023-04-01T16:35:58.292Z,10.08
2023-04-01T16:38:39.772Z,10.05
2023-04-01T16:41:18.190Z,10.03
2023-04-01T16:43:55.351Z,9.98
2023-04-01T16:46:35.066Z,9.93
2023-04-01T16:49:25.778Z,9.90
2023-04-01T16:52:01.809Z,9.84
2023-04-01T16:54:38.577Z,9.80
2023-04-01T16:57:21.695Z,9.77
2023-04-01T17:00:01.874Z,9.74
2023-04-01T17:02:37.804Z,9.73
2023-04-01T17:05:14.064Z,9.70
2023-04-01T17:07:58.937Z,9.70
2023-04-01T17:10:39.493Z,9.68
2023-04-01T17:13:28.324Z,9.66
2023-04-01T17:16:12.230Z,9.64
2023-04-01T17:18:51.738Z,9.62
2023-04-01T17:21:30.245Z,9.60
2023-04-01T17:24:17.183Z,9.59
2023-04-01T17:26:56.572Z,9.57
2023-04-01T17:29:34.119Z,9.56
2023-04-01T17:32:14.544Z,9.55
2023-04-01T17:34:57.832Z,9.55
2023-04-01T17:37:47.254Z,9.55
2023-04-01T17:40:29.731Z,9.56
2023-04-01T17:43:08.407Z,9.56
2023-04-01T17:45:48.092Z,9.55
2023-04-01T17:48:35.415Z,9.55
2023-04-01T17:51:21.728Z,9.55
2023-04-01T17:54:02.039Z,9.55
2023-04-01T17:56:47.629Z,9.56
2023-04-01T17:59:31.601Z,9.56
2023-04-01T18:02:14.236Z,9.56
2023-04-01T18:05:14.287Z,9.56
2023-04-01T18:08:01.692Z,9.58
2023-04-01T18:10:40.464Z,9.59
2023-04-01T18:13:39.066Z,9.59
2023-04-01T18:16:27.931Z,9.57
2023-04-01T18:19:04.830Z,9.58
2023-04-01T18:21:45.053Z,9.56
2023-04-01T18:24:22.151Z,9.55
2023-04-01T18:26:53.153Z,9.51
2023-04-01T18:29:37.040Z,9.46
2023-04-01T18:32:20.326Z,9.42
2023-04-01T18:35:03.536Z,9.38
2023-04-01T18:37:39.128Z,9.34
2023-04-01T18:40:23.507Z,9.31
2023-04-01T18:43:04.571Z,9.26
2023-04-01T18:45:39.456Z,9.23
2023-04-01T18:48:35.926Z,9.21
2023-04-01T18:51:16.249Z,9.17
2023-04-01T18:53:54.732Z,9.13
2023-04-01T18:56:32.802Z,9.09
2023-04-01T18:59:08.139Z,9.05
2023-04-01T19:01:44.989Z,9.04
2023-04-01T19:04:24.276Z,9.00
2023-04-01T19:06:57.901Z,8.95
2023-04-01T19:09:32.734Z,8.91
2023-04-01T19:12:22.709Z,8.88
2023-04-01T19:15:17.853Z,8.86
2023-04-01T19:18:00.604Z,8.80
2023-04-01T19:20:36.204Z,8.76
2023-04-01T19:23:44.797Z,8.72
2023-04-01T19:26:23.077Z,8.69
2023-04-01T19:29:00.872Z,8.65
2023-04-01T19:31:50.076Z,8.61
2023-04-01T19:34:31.097Z,8.58
2023-04-01T19:37:06.538Z,8.56
2023-04-01T19:39:51.096Z,8.54
2023-04-01T19:42:35.043Z,8.54
2023-04-01T19:45:22.576Z,8.53
2023-04-01T19:47:57.057Z,8.52
2023-04-01T19:50:36.611Z,8.50
2023-04-01T19:53:20.671Z,8.49
2023-04-01T19:55:58.965Z,8.47
2023-04-01T19:58:35.579Z,8.46
2023-04-01T20:01:12.020Z,8.44
2023-04-01T20:03:49.938Z,8.42
2023-04-01T20:06:28.164Z,8.39
2023-04-01T20:09:11.939Z,8.38
2023-04-01T20:12:01.120Z,8.36
2023-04-01T20:14:38.618Z,8.34
2023-04-01T20:17:22.438Z,8.32
2023-04-01T20:20:01.130Z,8.30
2023-04-01T20:22:55.508Z,8.27
2023-04-01T20:25:28.370Z,8.25
2023-04-01T20:28:02.788Z,8.23
2023-04-01T20:31:00.262Z,8.21
2023-04-01T20:33:55.921Z,8.18
2023-04-01T20:36:33.046Z,8.17
2023-04-01T20:39:22.251Z,8.16
2023-04-01T20:42:14.910Z,8.14
2023-04-01T20:44:57.732Z,8.13
2023-04-01T20:47:54.645Z,8.12
2023-04-01T20:50:30.501Z,8.11
2023-04-01T20:53:13.657Z,8.10
2023-04-01T20:56:32.266Z,8.10
2023-04-01T20:59:20.509Z,8.10
2023-04-01T21:02:04.175Z,8.10
2023-04-01T21:04:47.094Z,8.10
2023-04-01T21:07:36.670Z,8.10
2023-04-01T21:10:24.358Z,8.07
2023-04-01T21:13:04.056Z,8.03
2023-04-01T21:15:42.426Z,7.99
2023-04-01T21:18:39.237Z,7.94
2023-04-01T21:21:42.384Z,7.88
2023-04-01T21:24:47.408Z,7.84
2023-04-01T21:27:28.082Z,7.80
2023-04-01T21:30:09.565Z,7.77
2023-04-01T21:33:00.904Z,7.74
2023-04-01T21:35:41.050Z,7.73
2023-04-01T21:38:31.418Z,7.70
2023-04-01T21:41:10.377Z,7.66
2023-04-01T21:44:06.020Z,7.62
2023-04-01T21:47:02.713Z,7.56
2023-04-01T21:49:48.598Z,7.51
2023-04-01T21:52:54.130Z,7.50
2023-04-01T21:55:55.828Z,7.48
2023-04-01T21:58:52.934Z,7.44
2023-04-01T22:01:56.662Z,7.41
2023-04-01T22:04:43.467Z,7.38
2023-04-01T22:07:19.889Z,7.37
2023-04-01T22:10:01.924Z,7.34
2023-04-01T22:12:38.896Z,7.32
2023-04-01T22:15:14.778Z,7.32
2023-04-01T22:17:52.921Z,7.29
2023-04-01T22:20:30.338Z,7.26
2023-04-01T22:23:10.688Z,7.23
2023-04-01T22:25:48.252Z,7.22
2023-04-01T22:28:24.244Z,7.22
2023-04-01T22:30:58.089Z,7.20
2023-04-01T22:33:35.354Z,7.18
2023-04-01T22:36:15.890Z,7.15
2023-04-01T22:39:04.096Z,7.14
2023-04-01T22:41:54.632Z,7.13
2023-04-01T22:44:48.276Z,7.11
2023-04-01T22:47:28.431Z,7.10
2023-04-01T22:50:05.790Z,7.10
2023-04-01T22:52:41.217Z,7.09
2023-04-01T22:55:18.885Z,7.07
2023-04-01T22:57:56.233Z,7.08
2023-04-01T23:00:32.782Z,7.08
2023-04-01T23:03:16.537Z,7.06
2023-04-01T23:05:52.964Z,7.04
2023-04-01T23:09:03.182Z,7.02
2023-04-01T23:11:39.385Z,7.00
2023-04-01T23:14:45.294Z,7.01
2023-04-01T23:17:26.163Z,7.00
2023-04-01T23:20:02.578Z,6.98
2023-04-01T23:22:40.658Z,6.99
2023-04-01T23:25:29.627Z,6.98
2023-04-01T23:28:17.735Z,6.96
2023-04-01T23:30:52.896Z,6.90
2023-04-01T23:33:29.107Z,6.85
2023-04-01T23:36:06.289Z,6.80
2023-04-01T23:38:39.462Z,6.73
2023-04-01T23:41:11.574Z,6.69
2023-04-01T23:43:45.761Z,6.66
2023-04-01T23:46:16.742Z,6.62
2023-04-01T23:48:50.057Z,6.58
2023-04-01T23:51:24.200Z,6.56
2023-04-01T23:54:03.737Z,6.52
2023-04-01T23:56:44.536Z,6.48
2023-04-01T23:59:19.016Z,6.44
